sensor_id;sensor_type;location;lat;lon;timestamp;pressure;altitude;pressure_sealevel;temperature;humidity
42761;BME280;31672;47.638;19.026;2024-02-15T00:04:50;100825.13;;;5.01;98.43
42761;BME280;31672;47.638;19.026;2024-02-15T00:09:54;100839.50;;;5.08;98.68
42761;BME280;31672;47.638;19.026;2024-02-15T00:14:57;100832.22;;;5.12;98.59
42761;BME280;31672;47.638;19.026;2024-02-15T00:20:05;100828.03;;;5.21;98.42
42761;BME280;31672;47.638;19.026;2024-02-15T00:25:12;100829.72;;;5.22;98.26
42761;BME280;31672;47.638;19.026;2024-02-15T00:30:17;100824.22;;;5.25;98.07
42761;BME280;31672;47.638;19.026;2024-02-15T00:35:21;100825.66;;;5.29;97.99
42761;BME280;31672;47.638;19.026;2024-02-15T00:40:25;100819.19;;;5.33;98.02
42761;BME280;31672;47.638;19.026;2024-02-15T00:45:29;100827.94;;;5.45;97.45
42761;BME280;31672;47.638;19.026;2024-02-15T00:50:33;100821.25;;;5.52;96.79
42761;BME280;31672;47.638;19.026;2024-02-15T00:55:37;100824.22;;;5.58;96.12
42761;BME280;31672;47.638;19.026;2024-02-15T01:00:40;100842.69;;;5.58;95.95
42761;BME280;31672;47.638;19.026;2024-02-15T01:05:44;100827.94;;;5.56;95.88
42761;BME280;31672;47.638;19.026;2024-02-15T01:10:47;100829.84;;;5.54;96.30
42761;BME280;31672;47.638;19.026;2024-02-15T01:15:51;100823.63;;;5.55;96.31
42761;BME280;31672;47.638;19.026;2024-02-15T01:20:56;100818.34;;;5.55;96.52
42761;BME280;31672;47.638;19.026;2024-02-15T01:26:00;100817.75;;;5.51;96.78
42761;BME280;31672;47.638;19.026;2024-02-15T01:31:04;100809.38;;;5.46;97.46
42761;BME280;31672;47.638;19.026;2024-02-15T01:36:16;100804.47;;;5.53;97.40
42761;BME280;31672;47.638;19.026;2024-02-15T01:41:20;100806.97;;;5.54;97.40
42761;BME280;31672;47.638;19.026;2024-02-15T01:46:24;100821.47;;;5.60;97.46
42761;BME280;31672;47.638;19.026;2024-02-15T01:51:28;100818.97;;;5.58;97.30
42761;BME280;31672;47.638;19.026;2024-02-15T01:56:32;100813.78;;;5.57;96.86
42761;BME280;31672;47.638;19.026;2024-02-15T02:01:36;100817.28;;;5.46;96.57
42761;BME280;31672;47.638;19.026;2024-02-15T02:06:39;100825.78;;;5.38;96.98
42761;BME280;31672;47.638;19.026;2024-02-15T02:11:47;100826.38;;;5.31;97.64
42761;BME280;31672;47.638;19.026;2024-02-15T02:16:51;100823.97;;;5.17;97.99
42761;BME280;31672;47.638;19.026;2024-02-15T02:21:55;100817.22;;;5.01;98.67
42761;BME280;31672;47.638;19.026;2024-02-15T02:26:59;100811.69;;;4.82;98.69
42761;BME280;31672;47.638;19.026;2024-02-15T02:32:02;100811.53;;;4.72;99.49
42761;BME280;31672;47.638;19.026;2024-02-15T02:37:07;100814.75;;;4.65;100.00
42761;BME280;31672;47.638;19.026;2024-02-15T02:42:11;100817.97;;;4.57;100.00
42761;BME280;31672;47.638;19.026;2024-02-15T02:47:14;100808.72;;;4.51;100.00
42761;BME280;31672;47.638;19.026;2024-02-15T02:52:18;100804.63;;;4.47;100.00
42761;BME280;31672;47.638;19.026;2024-02-15T02:57:21;100808.56;;;4.42;100.00
42761;BME280;31672;47.638;19.026;2024-02-15T03:02:25;100819.47;;;4.48;100.00
42761;BME280;31672;47.638;19.026;2024-02-15T03:07:28;100813.47;;;4.46;100.00
42761;BME280;31672;47.638;19.026;2024-02-15T03:12:32;100810.34;;;4.41;100.00
42761;BME280;31672;47.638;19.026;2024-02-15T03:17:40;100811.44;;;4.39;100.00
42761;BME280;31672;47.638;19.026;2024-02-15T03:22:53;100810.16;;;4.32;100.00
42761;BME280;31672;47.638;19.026;2024-02-15T03:27:59;100808.34;;;4.21;100.00
42761;BME280;31672;47.638;19.026;2024-02-15T03:33:06;100813.63;;;4.21;100.00
42761;BME280;31672;47.638;19.026;2024-02-15T03:38:10;100804.44;;;4.26;100.00
42761;BME280;31672;47.638;19.026;2024-02-15T03:43:15;100815.72;;;4.40;100.00
42761;BME280;31672;47.638;19.026;2024-02-15T03:48:19;100819.47;;;4.48;100.00
42761;BME280;31672;47.638;19.026;2024-02-15T03:53:22;100817.13;;;4.56;100.00
42761;BME280;31672;47.638;19.026;2024-02-15T03:58:26;100821.94;;;4.63;100.00
42761;BME280;31672;47.638;19.026;2024-02-15T04:03:30;100816.19;;;4.69;100.00
42761;BME280;31672;47.638;19.026;2024-02-15T04:08:36;100816.44;;;4.77;100.00
42761;BME280;31672;47.638;19.026;2024-02-15T04:13:42;100816.13;;;4.81;100.00
42761;BME280;31672;47.638;19.026;2024-02-15T04:18:45;100823.91;;;4.83;100.00
42761;BME280;31672;47.638;19.026;2024-02-15T04:23:49;100819.59;;;4.82;100.00
42761;BME280;31672;47.638;19.026;2024-02-15T04:28:57;100821.97;;;4.85;100.00
42761;BME280;31672;47.638;19.026;2024-02-15T04:34:01;100824.50;;;4.87;100.00
42761;BME280;31672;47.638;19.026;2024-02-15T04:39:05;100822.81;;;4.86;100.00
42761;BME280;31672;47.638;19.026;2024-02-15T04:44:09;100826.06;;;4.89;100.00
42761;BME280;31672;47.638;19.026;2024-02-15T04:49:15;100819.97;;;4.89;100.00
42761;BME280;31672;47.638;19.026;2024-02-15T04:54:19;100816.69;;;4.85;100.00
42761;BME280;31672;47.638;19.026;2024-02-15T04:59:22;100822.72;;;4.87;100.00
42761;BME280;31672;47.638;19.026;2024-02-15T05:04:29;100832.28;;;4.88;100.00
42761;BME280;31672;47.638;19.026;2024-02-15T05:09:32;100811.09;;;4.90;100.00
42761;BME280;31672;47.638;19.026;2024-02-15T05:14:37;100815.31;;;4.92;100.00
42761;BME280;31672;47.638;19.026;2024-02-15T05:19:42;100835.28;;;4.95;100.00
42761;BME280;31672;47.638;19.026;2024-02-15T05:24:47;100825.47;;;4.97;100.00
42761;BME280;31672;47.638;19.026;2024-02-15T05:29:50;100834.00;;;5.00;100.00
42761;BME280;31672;47.638;19.026;2024-02-15T05:34:56;100836.38;;;5.03;100.00
42761;BME280;31672;47.638;19.026;2024-02-15T05:39:59;100840.81;;;5.03;100.00
42761;BME280;31672;47.638;19.026;2024-02-15T05:45:35;100849.22;;;5.08;100.00
42761;BME280;31672;47.638;19.026;2024-02-15T05:50:40;100846.34;;;5.11;100.00
42761;BME280;31672;47.638;19.026;2024-02-15T05:55:45;100855.09;;;5.12;100.00
42761;BME280;31672;47.638;19.026;2024-02-15T06:00:48;100858.22;;;5.17;100.00
42761;BME280;31672;47.638;19.026;2024-02-15T06:05:55;100860.59;;;5.20;100.00
42761;BME280;31672;47.638;19.026;2024-02-15T06:11:02;100878.94;;;5.21;100.00
42761;BME280;31672;47.638;19.026;2024-02-15T06:16:07;100875.72;;;5.18;100.00
42761;BME280;31672;47.638;19.026;2024-02-15T06:21:13;100885.06;;;5.22;100.00
42761;BME280;31672;47.638;19.026;2024-02-15T06:26:17;100884.09;;;5.23;100.00
42761;BME280;31672;47.638;19.026;2024-02-15T06:31:23;100884.94;;;5.23;100.00
42761;BME280;31672;47.638;19.026;2024-02-15T06:36:53;100891.53;;;5.29;100.00
42761;BME280;31672;47.638;19.026;2024-02-15T06:42:16;100895.00;;;5.29;100.00
42761;BME280;31672;47.638;19.026;2024-02-15T06:47:22;100904.84;;;5.38;100.00
42761;BME280;31672;47.638;19.026;2024-02-15T06:52:26;100902.81;;;5.42;100.00
42761;BME280;31672;47.638;19.026;2024-02-15T06:57:30;100914.56;;;5.49;100.00
42761;BME280;31672;47.638;19.026;2024-02-15T07:02:37;100914.22;;;5.54;100.00
42761;BME280;31672;47.638;19.026;2024-02-15T07:07:44;100923.47;;;5.59;100.00
42761;BME280;31672;47.638;19.026;2024-02-15T07:12:51;100908.22;;;5.63;100.00
42761;BME280;31672;47.638;19.026;2024-02-15T07:18:09;100920.00;;;5.70;100.00
42761;BME280;31672;47.638;19.026;2024-02-15T07:23:13;100931.97;;;5.74;100.00
42761;BME280;31672;47.638;19.026;2024-02-15T07:28:21;100920.84;;;5.82;100.00
42761;BME280;31672;47.638;19.026;2024-02-15T07:33:27;100929.81;;;5.90;100.00
42761;BME280;31672;47.638;19.026;2024-02-15T07:38:41;100930.34;;;5.96;100.00
42761;BME280;31672;47.638;19.026;2024-02-15T07:43:59;100929.03;;;6.01;100.00
42761;BME280;31672;47.638;19.026;2024-02-15T07:49:04;100930.44;;;6.05;100.00
42761;BME280;31672;47.638;19.026;2024-02-15T07:54:09;100922.03;;;6.11;100.00
42761;BME280;31672;47.638;19.026;2024-02-15T07:59:14;100926.59;;;6.21;100.00
42761;BME280;31672;47.638;19.026;2024-02-15T08:04:23;100921.31;;;6.32;100.00
42761;BME280;31672;47.638;19.026;2024-02-15T08:09:28;100913.47;;;6.41;100.00
42761;BME280;31672;47.638;19.026;2024-02-15T08:14:31;100911.66;;;6.53;100.00
42761;BME280;31672;47.638;19.026;2024-02-15T08:19:35;100907.56;;;6.60;100.00
42761;BME280;31672;47.638;19.026;2024-02-15T08:24:40;100912.56;;;6.75;99.70
42761;BME280;31672;47.638;19.026;2024-02-15T08:29:45;100925.44;;;6.89;98.94
42761;BME280;31672;47.638;19.026;2024-02-15T08:34:48;100913.31;;;6.97;98.06
42761;BME280;31672;47.638;19.026;2024-02-15T08:39:52;100915.28;;;7.05;96.82
42761;BME280;31672;47.638;19.026;2024-02-15T08:44:57;100916.97;;;7.06;95.35
42761;BME280;31672;47.638;19.026;2024-02-15T08:50:06;100925.13;;;7.14;94.54
42761;BME280;31672;47.638;19.026;2024-02-15T08:55:11;100932.47;;;7.32;94.21
42761;BME280;31672;47.638;19.026;2024-02-15T09:00:18;100945.75;;;7.41;93.05
42761;BME280;31672;47.638;19.026;2024-02-15T09:05:23;100924.66;;;7.51;92.31
42761;BME280;31672;47.638;19.026;2024-02-15T09:10:26;100924.91;;;7.69;90.90
42761;BME280;31672;47.638;19.026;2024-02-15T09:15:30;100934.28;;;7.83;88.65
42761;BME280;31672;47.638;19.026;2024-02-15T09:20:34;100927.09;;;7.94;89.10
42761;BME280;31672;47.638;19.026;2024-02-15T09:25:41;100936.38;;;8.10;88.00
42761;BME280;31672;47.638;19.026;2024-02-15T09:30:50;100934.84;;;8.17;85.39
42761;BME280;31672;47.638;19.026;2024-02-15T09:35:57;100932.50;;;8.23;84.96
42761;BME280;31672;47.638;19.026;2024-02-15T09:41:00;100921.09;;;8.32;83.75
42761;BME280;31672;47.638;19.026;2024-02-15T09:46:06;100933.41;;;8.43;81.43
42761;BME280;31672;47.638;19.026;2024-02-15T09:51:10;100923.41;;;8.47;81.60
42761;BME280;31672;47.638;19.026;2024-02-15T09:56:16;100924.94;;;8.59;81.45
42761;BME280;31672;47.638;19.026;2024-02-15T10:01:23;100915.06;;;8.80;81.59
42761;BME280;31672;47.638;19.026;2024-02-15T10:06:29;100916.59;;;8.93;78.15
42761;BME280;31672;47.638;19.026;2024-02-15T10:11:32;100914.91;;;9.11;79.11
42761;BME280;31672;47.638;19.026;2024-02-15T10:16:36;100907.94;;;9.20;77.45
42761;BME280;31672;47.638;19.026;2024-02-15T10:21:40;100910.44;;;9.21;76.08
42761;BME280;31672;47.638;19.026;2024-02-15T10:26:48;100911.38;;;9.49;76.96
42761;BME280;31672;47.638;19.026;2024-02-15T10:31:57;100917.69;;;9.85;76.22
42761;BME280;31672;47.638;19.026;2024-02-15T10:37:13;100904.13;;;10.26;74.90
42761;BME280;31672;47.638;19.026;2024-02-15T10:42:17;100902.94;;;10.56;72.17
42761;BME280;31672;47.638;19.026;2024-02-15T10:47:22;100901.19;;;10.64;69.81
42761;BME280;31672;47.638;19.026;2024-02-15T10:52:31;100897.16;;;10.78;68.79
42761;BME280;31672;47.638;19.026;2024-02-15T10:57:38;100885.31;;;10.90;65.80
42761;BME280;31672;47.638;19.026;2024-02-15T11:02:59;100890.94;;;10.87;64.78
42761;BME280;31672;47.638;19.026;2024-02-15T11:08:07;100890.34;;;10.93;65.29
42761;BME280;31672;47.638;19.026;2024-02-15T11:13:11;100889.00;;;11.15;64.17
42761;BME280;31672;47.638;19.026;2024-02-15T11:18:49;100881.31;;;11.30;63.68
42761;BME280;31672;47.638;19.026;2024-02-15T11:23:55;100880.72;;;11.44;62.46
42761;BME280;31672;47.638;19.026;2024-02-15T11:28:59;100869.44;;;11.50;61.99
42761;BME280;31672;47.638;19.026;2024-02-15T11:34:41;100879.53;;;11.65;61.12
42761;BME280;31672;47.638;19.026;2024-02-15T11:39:46;100870.28;;;11.51;60.05
42761;BME280;31672;47.638;19.026;2024-02-15T11:45:05;100873.94;;;11.50;60.39
42761;BME280;31672;47.638;19.026;2024-02-15T11:50:18;100866.75;;;11.42;59.62
42761;BME280;31672;47.638;19.026;2024-02-15T11:55:24;100858.22;;;11.39;60.58
42761;BME280;31672;47.638;19.026;2024-02-15T12:00:38;100863.34;;;11.32;59.96
42761;BME280;31672;47.638;19.026;2024-02-15T12:06:10;100869.50;;;11.33;59.68
42761;BME280;31672;47.638;19.026;2024-02-15T12:11:33;100857.72;;;11.35;59.88
42761;BME280;31672;47.638;19.026;2024-02-15T12:17:07;100852.78;;;11.40;60.06
42761;BME280;31672;47.638;19.026;2024-02-15T12:27:44;100839.59;;;11.65;60.31
42761;BME280;31672;47.638;19.026;2024-02-15T12:32:48;100837.31;;;11.78;59.70
42761;BME280;31672;47.638;19.026;2024-02-15T12:43:05;100829.03;;;11.81;58.61
42761;BME280;31672;47.638;19.026;2024-02-15T12:48:09;100822.34;;;11.77;58.32
42761;BME280;31672;47.638;19.026;2024-02-15T12:53:22;100817.69;;;11.79;58.39
42761;BME280;31672;47.638;19.026;2024-02-15T12:58:25;100806.19;;;11.78;57.65
42761;BME280;31672;47.638;19.026;2024-02-15T13:03:29;100823.00;;;11.79;58.71
42761;BME280;31672;47.638;19.026;2024-02-15T13:08:33;100808.41;;;11.57;57.11
42761;BME280;31672;47.638;19.026;2024-02-15T13:13:38;100816.38;;;11.49;58.81
42761;BME280;31672;47.638;19.026;2024-02-15T13:18:42;100810.53;;;11.45;59.14
42761;BME280;31672;47.638;19.026;2024-02-15T13:23:45;100808.88;;;11.44;59.40
42761;BME280;31672;47.638;19.026;2024-02-15T13:28:49;100813.34;;;11.44;59.26
42761;BME280;31672;47.638;19.026;2024-02-15T13:33:53;100797.53;;;11.34;59.16
42761;BME280;31672;47.638;19.026;2024-02-15T13:38:56;100796.31;;;11.29;59.56
42761;BME280;31672;47.638;19.026;2024-02-15T13:44:00;100800.94;;;11.26;59.81
42761;BME280;31672;47.638;19.026;2024-02-15T13:49:04;100787.59;;;11.18;60.31
42761;BME280;31672;47.638;19.026;2024-02-15T13:54:10;100780.81;;;11.24;60.60
42761;BME280;31672;47.638;19.026;2024-02-15T13:59:14;100783.03;;;11.29;60.51
42761;BME280;31672;47.638;19.026;2024-02-15T14:04:17;100794.50;;;11.29;60.65
42761;BME280;31672;47.638;19.026;2024-02-15T14:09:21;100778.16;;;11.24;60.24
42761;BME280;31672;47.638;19.026;2024-02-15T14:14:29;100785.31;;;11.23;60.66
42761;BME280;31672;47.638;19.026;2024-02-15T14:19:32;100777.41;;;11.06;59.89
42761;BME280;31672;47.638;19.026;2024-02-15T14:24:36;100779.38;;;11.04;61.55
42761;BME280;31672;47.638;19.026;2024-02-15T14:29:42;100775.78;;;11.13;62.31
42761;BME280;31672;47.638;19.026;2024-02-15T14:35:08;100782.47;;;11.17;62.07
42761;BME280;31672;47.638;19.026;2024-02-15T14:40:15;100790.38;;;11.09;62.35
42761;BME280;31672;47.638;19.026;2024-02-15T14:45:21;100792.31;;;10.98;62.20
42761;BME280;31672;47.638;19.026;2024-02-15T14:50:26;100787.72;;;10.83;62.30
42761;BME280;31672;47.638;19.026;2024-02-15T14:55:29;100788.88;;;10.62;63.25
42761;BME280;31672;47.638;19.026;2024-02-15T15:00:37;100783.97;;;10.50;64.01
42761;BME280;31672;47.638;19.026;2024-02-15T15:05:44;100779.78;;;10.29;64.82
42761;BME280;31672;47.638;19.026;2024-02-15T15:11:07;100781.94;;;10.16;65.77
42761;BME280;31672;47.638;19.026;2024-02-15T15:16:30;100778.53;;;10.06;66.44
42761;BME280;31672;47.638;19.026;2024-02-15T15:21:34;100770.63;;;9.96;67.08
42761;BME280;31672;47.638;19.026;2024-02-15T15:26:38;100775.41;;;9.92;68.02
42761;BME280;31672;47.638;19.026;2024-02-15T15:31:41;100786.22;;;9.81;67.90
42761;BME280;31672;47.638;19.026;2024-02-15T15:36:46;100787.97;;;9.73;68.53
42761;BME280;31672;47.638;19.026;2024-02-15T15:41:53;100776.28;;;9.65;69.17
42761;BME280;31672;47.638;19.026;2024-02-15T15:46:57;100781.63;;;9.56;69.48
42761;BME280;31672;47.638;19.026;2024-02-15T15:52:03;100775.81;;;9.43;70.04
42761;BME280;31672;47.638;19.026;2024-02-15T15:57:07;100795.41;;;9.32;70.79
42761;BME280;31672;47.638;19.026;2024-02-15T16:02:13;100798.06;;;9.22;71.61
42761;BME280;31672;47.638;19.026;2024-02-15T16:07:16;100797.81;;;9.16;72.36
42761;BME280;31672;47.638;19.026;2024-02-15T16:12:20;100794.22;;;9.07;73.26
42761;BME280;31672;47.638;19.026;2024-02-15T16:17:24;100793.13;;;9.00;73.86
42761;BME280;31672;47.638;19.026;2024-02-15T16:22:37;100797.31;;;8.93;74.46
42761;BME280;31672;47.638;19.026;2024-02-15T16:27:42;100793.00;;;8.92;74.92
42761;BME280;31672;47.638;19.026;2024-02-15T16:32:50;100808.78;;;8.83;75.57
42761;BME280;31672;47.638;19.026;2024-02-15T16:37:58;100810.03;;;8.79;76.02
42761;BME280;31672;47.638;19.026;2024-02-15T16:43:10;100808.09;;;8.72;76.71
42761;BME280;31672;47.638;19.026;2024-02-15T16:48:14;100810.88;;;8.70;77.00
42761;BME280;31672;47.638;19.026;2024-02-15T16:53:20;100812.84;;;8.58;77.68
42761;BME280;31672;47.638;19.026;2024-02-15T16:58:24;100824.84;;;8.53;78.52
42761;BME280;31672;47.638;19.026;2024-02-15T17:03:41;100835.41;;;8.43;79.39
42761;BME280;31672;47.638;19.026;2024-02-15T17:08:45;100841.94;;;8.39;80.01
42761;BME280;31672;47.638;19.026;2024-02-15T17:13:52;100847.66;;;8.35;80.58
42761;BME280;31672;47.638;19.026;2024-02-15T17:19:24;100849.16;;;8.27;81.03
42761;BME280;31672;47.638;19.026;2024-02-15T17:24:27;100850.69;;;8.20;81.85
42761;BME280;31672;47.638;19.026;2024-02-15T17:29:43;100857.25;;;8.16;81.98
42761;BME280;31672;47.638;19.026;2024-02-15T17:34:47;100857.34;;;8.05;82.49
42761;BME280;31672;47.638;19.026;2024-02-15T17:39:51;100863.88;;;8.01;82.78
42761;BME280;31672;47.638;19.026;2024-02-15T17:44:54;100864.25;;;7.87;83.37
42761;BME280;31672;47.638;19.026;2024-02-15T17:49:58;100869.19;;;7.70;83.48
42761;BME280;31672;47.638;19.026;2024-02-15T17:55:02;100874.13;;;7.54;84.15
42761;BME280;31672;47.638;19.026;2024-02-15T18:00:10;100872.09;;;7.37;85.41
42761;BME280;31672;47.638;19.026;2024-02-15T18:05:20;100861.72;;;7.24;86.11
42761;BME280;31672;47.638;19.026;2024-02-15T18:10:24;100872.94;;;7.16;86.62
42761;BME280;31672;47.638;19.026;2024-02-15T18:15:28;100873.66;;;6.97;86.50
42761;BME280;31672;47.638;19.026;2024-02-15T18:20:37;100861.91;;;6.69;87.14
42761;BME280;31672;47.638;19.026;2024-02-15T18:25:42;100866.41;;;6.47;87.53
42761;BME280;31672;47.638;19.026;2024-02-15T18:30:46;100872.34;;;6.28;88.54
42761;BME280;31672;47.638;19.026;2024-02-15T18:35:52;100868.34;;;6.01;89.55
42761;BME280;31672;47.638;19.026;2024-02-15T18:40:58;100877.41;;;5.86;90.86
42761;BME280;31672;47.638;19.026;2024-02-15T18:46:01;100866.53;;;5.68;91.83
42761;BME280;31672;47.638;19.026;2024-02-15T18:51:08;100877.19;;;5.55;93.13
42761;BME280;31672;47.638;19.026;2024-02-15T18:56:14;100870.22;;;5.43;94.13
42761;BME280;31672;47.638;19.026;2024-02-15T19:01:20;100870.69;;;5.26;94.56
42761;BME280;31672;47.638;19.026;2024-02-15T19:06:26;100864.53;;;5.14;95.15
42761;BME280;31672;47.638;19.026;2024-02-15T19:11:30;100868.13;;;5.02;95.94
42761;BME280;31672;47.638;19.026;2024-02-15T19:16:34;100874.19;;;4.91;97.22
42761;BME280;31672;47.638;19.026;2024-02-15T19:21:37;100879.91;;;4.85;98.20
42761;BME280;31672;47.638;19.026;2024-02-15T19:26:41;100872.59;;;4.77;99.21
42761;BME280;31672;47.638;19.026;2024-02-15T19:31:47;100873.03;;;4.71;100.00
42761;BME280;31672;47.638;19.026;2024-02-15T19:36:54;100880.09;;;4.71;100.00
42761;BME280;31672;47.638;19.026;2024-02-15T19:42:10;100878.94;;;4.75;100.00
42761;BME280;31672;47.638;19.026;2024-02-15T19:47:14;100877.28;;;4.85;100.00
42761;BME280;31672;47.638;19.026;2024-02-15T19:52:20;100885.97;;;4.98;100.00
42761;BME280;31672;47.638;19.026;2024-02-15T19:57:25;100877.22;;;4.98;100.00
42761;BME280;31672;47.638;19.026;2024-02-15T20:02:30;100872.66;;;5.00;100.00
42761;BME280;31672;47.638;19.026;2024-02-15T20:07:35;100888.84;;;5.06;100.00
42761;BME280;31672;47.638;19.026;2024-02-15T20:12:41;100886.84;;;5.10;100.00
42761;BME280;31672;47.638;19.026;2024-02-15T20:17:44;100887.69;;;5.22;100.00
42761;BME280;31672;47.638;19.026;2024-02-15T20:22:48;100885.19;;;5.31;100.00
42761;BME280;31672;47.638;19.026;2024-02-15T20:27:51;100889.38;;;5.45;100.00
42761;BME280;31672;47.638;19.026;2024-02-15T20:32:55;100888.56;;;5.56;100.00
42761;BME280;31672;47.638;19.026;2024-02-15T20:38:00;100890.72;;;5.62;100.00
42761;BME280;31672;47.638;19.026;2024-02-15T20:43:04;100885.31;;;5.63;100.00
42761;BME280;31672;47.638;19.026;2024-02-15T20:48:08;100884.84;;;5.70;100.00
42761;BME280;31672;47.638;19.026;2024-02-15T20:53:12;100893.25;;;5.75;100.00
42761;BME280;31672;47.638;19.026;2024-02-15T20:58:16;100888.47;;;5.80;100.00
42761;BME280;31672;47.638;19.026;2024-02-15T21:03:21;100889.56;;;5.88;100.00
42761;BME280;31672;47.638;19.026;2024-02-15T21:08:25;100888.25;;;5.94;100.00
42761;BME280;31672;47.638;19.026;2024-02-15T21:13:28;100878.16;;;5.99;100.00
42761;BME280;31672;47.638;19.026;2024-02-15T21:18:31;100877.94;;;6.02;100.00
42761;BME280;31672;47.638;19.026;2024-02-15T21:23:35;100886.44;;;6.06;100.00
42761;BME280;31672;47.638;19.026;2024-02-15T21:28:39;100886.06;;;6.10;100.00
42761;BME280;31672;47.638;19.026;2024-02-15T21:33:47;100882.47;;;6.11;100.00
42761;BME280;31672;47.638;19.026;2024-02-15T21:38:56;100888.94;;;6.19;100.00
42761;BME280;31672;47.638;19.026;2024-02-15T21:44:01;100876.47;;;6.21;100.00
42761;BME280;31672;47.638;19.026;2024-02-15T21:49:05;100878.97;;;6.22;100.00
42761;BME280;31672;47.638;19.026;2024-02-15T21:54:10;100878.47;;;6.28;100.00
42761;BME280;31672;47.638;19.026;2024-02-15T21:59:13;100877.41;;;6.31;100.00
42761;BME280;31672;47.638;19.026;2024-02-15T22:04:18;100878.09;;;6.33;100.00
42761;BME280;31672;47.638;19.026;2024-02-15T22:09:23;100879.91;;;6.32;100.00
42761;BME280;31672;47.638;19.026;2024-02-15T22:14:27;100875.47;;;6.33;100.00
42761;BME280;31672;47.638;19.026;2024-02-15T22:19:30;100875.22;;;6.36;100.00
42761;BME280;31672;47.638;19.026;2024-02-15T22:24:35;100875.94;;;6.38;100.00
42761;BME280;31672;47.638;19.026;2024-02-15T22:29:40;100879.53;;;6.37;100.00
42761;BME280;31672;47.638;19.026;2024-02-15T22:34:44;100884.56;;;6.40;100.00
42761;BME280;31672;47.638;19.026;2024-02-15T22:39:48;100883.84;;;6.38;100.00
42761;BME280;31672;47.638;19.026;2024-02-15T22:44:52;100885.28;;;6.42;100.00
42761;BME280;31672;47.638;19.026;2024-02-15T22:49:57;100883.22;;;6.46;100.00
42761;BME280;31672;47.638;19.026;2024-02-15T22:55:00;100876.16;;;6.46;100.00
42761;BME280;31672;47.638;19.026;2024-02-15T23:00:07;100871.59;;;6.48;100.00
42761;BME280;31672;47.638;19.026;2024-02-15T23:05:12;100863.91;;;6.45;100.00
42761;BME280;31672;47.638;19.026;2024-02-15T23:10:16;100874.94;;;6.50;100.00
42761;BME280;31672;47.638;19.026;2024-02-15T23:15:20;100869.19;;;6.45;100.00
42761;BME280;31672;47.638;19.026;2024-02-15T23:20:23;100868.22;;;6.46;100.00
42761;BME280;31672;47.638;19.026;2024-02-15T23:25:28;100872.66;;;6.46;100.00
42761;BME280;31672;47.638;19.026;2024-02-15T23:30:31;100877.13;;;6.45;100.00
42761;BME280;31672;47.638;19.026;2024-02-15T23:35:36;100874.75;;;6.42;100.00
42761;BME280;31672;47.638;19.026;2024-02-15T23:40:51;100875.69;;;6.41;100.00
42761;BME280;31672;47.638;19.026;2024-02-15T23:45:56;100873.88;;;6.41;100.00
42761;BME280;31672;47.638;19.026;2024-02-15T23:51:00;100878.31;;;6.41;100.00
42761;BME280;31672;47.638;19.026;2024-02-15T23:56:04;100869.69;;;6.39;100.00
